sensor_id;sensor_type;location;lat;lon;timestamp;P1;durP1;ratioP1;P2;durP2;ratioP2
15363;SDS011;7781;49.690;6.472;2022-08-11T00:02:32;2.97;;;2.70;;
15363;SDS011;7781;49.690;6.472;2022-08-11T00:05:04;2.80;;;2.57;;
15363;SDS011;7781;49.690;6.472;2022-08-11T00:07:40;7.50;;;2.17;;
15363;SDS011;7781;49.690;6.472;2022-08-11T00:10:11;5.63;;;2.50;;
15363;SDS011;7781;49.690;6.472;2022-08-11T00:12:42;4.40;;;3.03;;
15363;SDS011;7781;49.690;6.472;2022-08-11T00:15:16;2.67;;;2.47;;
15363;SDS011;7781;49.690;6.472;2022-08-11T00:17:45;3.37;;;2.60;;
15363;SDS011;7781;49.690;6.472;2022-08-11T00:20:15;2.60;;;2.33;;
15363;SDS011;7781;49.690;6.472;2022-08-11T00:22:45;4.27;;;2.40;;
15363;SDS011;7781;49.690;6.472;2022-08-11T00:25:16;3.53;;;2.83;;
15363;SDS011;7781;49.690;6.472;2022-08-11T00:27:46;2.90;;;2.70;;
15363;SDS011;7781;49.690;6.472;2022-08-11T00:30:15;6.43;;;2.63;;
15363;SDS011;7781;49.690;6.472;2022-08-11T00:32:44;4.73;;;3.30;;
15363;SDS011;7781;49.690;6.472;2022-08-11T00:35:22;3.00;;;2.23;;
15363;SDS011;7781;49.690;6.472;2022-08-11T00:38:13;4.63;;;3.20;;
15363;SDS011;7781;49.690;6.472;2022-08-11T00:40:43;2.60;;;2.40;;
15363;SDS011;7781;49.690;6.472;2022-08-11T00:43:21;4.30;;;2.73;;
15363;SDS011;7781;49.690;6.472;2022-08-11T00:46:10;5.13;;;2.83;;
15363;SDS011;7781;49.690;6.472;2022-08-11T00:48:48;3.73;;;2.70;;
15363;SDS011;7781;49.690;6.472;2022-08-11T00:51:35;9.50;;;2.97;;
15363;SDS011;7781;49.690;6.472;2022-08-11T00:54:35;3.33;;;2.73;;
15363;SDS011;7781;49.690;6.472;2022-08-11T00:57:40;4.27;;;2.77;;
15363;SDS011;7781;49.690;6.472;2022-08-11T01:00:42;4.83;;;3.00;;
15363;SDS011;7781;49.690;6.472;2022-08-11T01:03:31;14.53;;;3.50;;
15363;SDS011;7781;49.690;6.472;2022-08-11T01:06:49;3.13;;;2.83;;
15363;SDS011;7781;49.690;6.472;2022-08-11T01:09:40;4.20;;;3.30;;
15363;SDS011;7781;49.690;6.472;2022-08-11T01:15:32;3.17;;;2.80;;
15363;SDS011;7781;49.690;6.472;2022-08-11T01:18:47;4.03;;;2.97;;
15363;SDS011;7781;49.690;6.472;2022-08-11T01:24:39;3.97;;;3.00;;
15363;SDS011;7781;49.690;6.472;2022-08-11T01:27:31;2.90;;;2.60;;
15363;SDS011;7781;49.690;6.472;2022-08-11T01:30:42;5.63;;;3.20;;
15363;SDS011;7781;49.690;6.472;2022-08-11T01:36:57;6.50;;;3.07;;
15363;SDS011;7781;49.690;6.472;2022-08-11T01:43:00;3.57;;;3.10;;
15363;SDS011;7781;49.690;6.472;2022-08-11T01:46:05;3.27;;;2.80;;
15363;SDS011;7781;49.690;6.472;2022-08-11T01:48:42;6.73;;;4.00;;
15363;SDS011;7781;49.690;6.472;2022-08-11T01:51:22;7.03;;;3.73;;
15363;SDS011;7781;49.690;6.472;2022-08-11T01:54:02;5.50;;;3.77;;
15363;SDS011;7781;49.690;6.472;2022-08-11T01:56:33;4.70;;;3.93;;
15363;SDS011;7781;49.690;6.472;2022-08-11T01:59:15;4.37;;;3.47;;
15363;SDS011;7781;49.690;6.472;2022-08-11T02:01:56;6.10;;;3.87;;
15363;SDS011;7781;49.690;6.472;2022-08-11T02:05:16;6.30;;;4.00;;
15363;SDS011;7781;49.690;6.472;2022-08-11T02:08:02;11.73;;;4.00;;
15363;SDS011;7781;49.690;6.472;2022-08-11T02:10:43;6.73;;;3.87;;
15363;SDS011;7781;49.690;6.472;2022-08-11T02:13:39;5.60;;;3.80;;
15363;SDS011;7781;49.690;6.472;2022-08-11T02:16:16;8.37;;;4.13;;
15363;SDS011;7781;49.690;6.472;2022-08-11T02:18:54;4.10;;;3.60;;
15363;SDS011;7781;49.690;6.472;2022-08-11T02:21:58;4.33;;;3.80;;
15363;SDS011;7781;49.690;6.472;2022-08-11T02:24:48;4.30;;;3.90;;
15363;SDS011;7781;49.690;6.472;2022-08-11T02:27:30;3.80;;;3.50;;
15363;SDS011;7781;49.690;6.472;2022-08-11T02:30:07;4.00;;;3.60;;
15363;SDS011;7781;49.690;6.472;2022-08-11T02:32:40;4.73;;;3.60;;
15363;SDS011;7781;49.690;6.472;2022-08-11T02:35:34;3.70;;;3.37;;
15363;SDS011;7781;49.690;6.472;2022-08-11T02:38:13;5.70;;;4.03;;
15363;SDS011;7781;49.690;6.472;2022-08-11T02:40:48;7.70;;;3.73;;
15363;SDS011;7781;49.690;6.472;2022-08-11T02:43:28;6.03;;;4.03;;
15363;SDS011;7781;49.690;6.472;2022-08-11T02:46:17;5.20;;;3.80;;
15363;SDS011;7781;49.690;6.472;2022-08-11T02:48:52;4.37;;;3.30;;
15363;SDS011;7781;49.690;6.472;2022-08-11T02:51:48;3.93;;;3.63;;
15363;SDS011;7781;49.690;6.472;2022-08-11T02:54:26;5.43;;;3.80;;
15363;SDS011;7781;49.690;6.472;2022-08-11T02:57:01;4.70;;;4.00;;
15363;SDS011;7781;49.690;6.472;2022-08-11T02:59:42;5.37;;;3.80;;
15363;SDS011;7781;49.690;6.472;2022-08-11T03:02:23;5.73;;;3.53;;
15363;SDS011;7781;49.690;6.472;2022-08-11T03:05:04;5.10;;;3.40;;
15363;SDS011;7781;49.690;6.472;2022-08-11T03:07:40;4.70;;;3.50;;
15363;SDS011;7781;49.690;6.472;2022-08-11T03:10:20;5.30;;;3.60;;
15363;SDS011;7781;49.690;6.472;2022-08-11T03:12:51;4.10;;;3.70;;
15363;SDS011;7781;49.690;6.472;2022-08-11T03:15:45;11.73;;;3.97;;
15363;SDS011;7781;49.690;6.472;2022-08-11T03:18:36;10.90;;;3.83;;
15363;SDS011;7781;49.690;6.472;2022-08-11T03:21:15;5.77;;;3.57;;
15363;SDS011;7781;49.690;6.472;2022-08-11T03:23:50;5.50;;;4.00;;
15363;SDS011;7781;49.690;6.472;2022-08-11T03:26:27;4.90;;;3.33;;
15363;SDS011;7781;49.690;6.472;2022-08-11T03:29:01;3.90;;;3.60;;
15363;SDS011;7781;49.690;6.472;2022-08-11T03:31:40;4.23;;;3.83;;
15363;SDS011;7781;49.690;6.472;2022-08-11T03:34:16;4.77;;;3.87;;
15363;SDS011;7781;49.690;6.472;2022-08-11T03:36:58;3.90;;;3.60;;
15363;SDS011;7781;49.690;6.472;2022-08-11T03:39:49;8.50;;;3.60;;
15363;SDS011;7781;49.690;6.472;2022-08-11T03:42:27;14.50;;;4.07;;
15363;SDS011;7781;49.690;6.472;2022-08-11T03:45:02;8.63;;;3.97;;
15363;SDS011;7781;49.690;6.472;2022-08-11T03:47:43;5.00;;;4.50;;
15363;SDS011;7781;49.690;6.472;2022-08-11T03:50:57;3.90;;;3.60;;
15363;SDS011;7781;49.690;6.472;2022-08-11T03:53:38;4.93;;;3.53;;
15363;SDS011;7781;49.690;6.472;2022-08-11T03:56:41;4.17;;;3.77;;
15363;SDS011;7781;49.690;6.472;2022-08-11T04:03:07;4.90;;;4.40;;
15363;SDS011;7781;49.690;6.472;2022-08-11T04:06:06;7.73;;;4.10;;
15363;SDS011;7781;49.690;6.472;2022-08-11T04:09:15;5.53;;;3.67;;
15363;SDS011;7781;49.690;6.472;2022-08-11T04:12:30;4.20;;;3.67;;
15363;SDS011;7781;49.690;6.472;2022-08-11T04:18:52;5.83;;;4.07;;
15363;SDS011;7781;49.690;6.472;2022-08-11T04:22:02;5.17;;;4.30;;
15363;SDS011;7781;49.690;6.472;2022-08-11T04:28:32;9.40;;;3.50;;
15363;SDS011;7781;49.690;6.472;2022-08-11T04:34:34;4.37;;;3.70;;
15363;SDS011;7781;49.690;6.472;2022-08-11T04:37:09;6.53;;;4.23;;
15363;SDS011;7781;49.690;6.472;2022-08-11T04:43:23;4.43;;;4.03;;
15363;SDS011;7781;49.690;6.472;2022-08-11T04:50:26;4.23;;;3.83;;
15363;SDS011;7781;49.690;6.472;2022-08-11T04:53:42;5.57;;;4.17;;
15363;SDS011;7781;49.690;6.472;2022-08-11T04:56:38;10.13;;;4.30;;
15363;SDS011;7781;49.690;6.472;2022-08-11T04:59:32;5.00;;;4.13;;
15363;SDS011;7781;49.690;6.472;2022-08-11T05:02:36;5.33;;;4.20;;
15363;SDS011;7781;49.690;6.472;2022-08-11T05:05:35;4.60;;;3.87;;
15363;SDS011;7781;49.690;6.472;2022-08-11T05:08:42;4.97;;;3.97;;
15363;SDS011;7781;49.690;6.472;2022-08-11T05:11:44;4.50;;;4.10;;
15363;SDS011;7781;49.690;6.472;2022-08-11T05:14:35;5.70;;;3.97;;
15363;SDS011;7781;49.690;6.472;2022-08-11T05:17:29;4.87;;;3.90;;
15363;SDS011;7781;49.690;6.472;2022-08-11T05:20:21;6.70;;;3.97;;
15363;SDS011;7781;49.690;6.472;2022-08-11T05:23:10;7.83;;;4.23;;
15363;SDS011;7781;49.690;6.472;2022-08-11T05:25:58;5.83;;;3.97;;
15363;SDS011;7781;49.690;6.472;2022-08-11T05:29:23;5.17;;;4.20;;
15363;SDS011;7781;49.690;6.472;2022-08-11T05:32:14;4.77;;;4.13;;
15363;SDS011;7781;49.690;6.472;2022-08-11T05:35:02;6.10;;;4.30;;
15363;SDS011;7781;49.690;6.472;2022-08-11T05:37:37;5.87;;;3.53;;
15363;SDS011;7781;49.690;6.472;2022-08-11T05:40:24;6.43;;;4.30;;
15363;SDS011;7781;49.690;6.472;2022-08-11T05:43:19;5.17;;;4.37;;
15363;SDS011;7781;49.690;6.472;2022-08-11T05:46:27;6.83;;;4.20;;
15363;SDS011;7781;49.690;6.472;2022-08-11T05:49:14;4.47;;;3.77;;
15363;SDS011;7781;49.690;6.472;2022-08-11T05:52:00;4.90;;;3.57;;
15363;SDS011;7781;49.690;6.472;2022-08-11T05:54:59;7.00;;;3.80;;
15363;SDS011;7781;49.690;6.472;2022-08-11T05:57:53;7.97;;;3.53;;
15363;SDS011;7781;49.690;6.472;2022-08-11T06:00:22;6.03;;;3.60;;
15363;SDS011;7781;49.690;6.472;2022-08-11T06:02:52;4.40;;;3.30;;
15363;SDS011;7781;49.690;6.472;2022-08-11T06:05:30;7.97;;;4.03;;
15363;SDS011;7781;49.690;6.472;2022-08-11T06:08:09;11.30;;;3.40;;
15363;SDS011;7781;49.690;6.472;2022-08-11T06:10:39;10.67;;;3.60;;
15363;SDS011;7781;49.690;6.472;2022-08-11T06:13:14;6.40;;;3.27;;
15363;SDS011;7781;49.690;6.472;2022-08-11T06:15:45;3.83;;;3.13;;
15363;SDS011;7781;49.690;6.472;2022-08-11T06:18:14;4.77;;;3.10;;
15363;SDS011;7781;49.690;6.472;2022-08-11T06:20:47;7.70;;;3.30;;
15363;SDS011;7781;49.690;6.472;2022-08-11T06:23:17;3.73;;;3.03;;
15363;SDS011;7781;49.690;6.472;2022-08-11T06:25:49;3.40;;;3.03;;
15363;SDS011;7781;49.690;6.472;2022-08-11T06:28:28;8.53;;;2.80;;
15363;SDS011;7781;49.690;6.472;2022-08-11T06:30:59;8.27;;;3.07;;
15363;SDS011;7781;49.690;6.472;2022-08-11T06:33:29;4.47;;;3.03;;
15363;SDS011;7781;49.690;6.472;2022-08-11T06:36:02;11.17;;;3.00;;
15363;SDS011;7781;49.690;6.472;2022-08-11T06:38:37;8.40;;;3.30;;
15363;SDS011;7781;49.690;6.472;2022-08-11T06:41:17;6.63;;;2.60;;
15363;SDS011;7781;49.690;6.472;2022-08-11T06:44:13;13.53;;;3.17;;
15363;SDS011;7781;49.690;6.472;2022-08-11T06:46:45;7.50;;;3.50;;
15363;SDS011;7781;49.690;6.472;2022-08-11T06:49:18;5.97;;;2.80;;
15363;SDS011;7781;49.690;6.472;2022-08-11T06:52:06;4.10;;;3.30;;
15363;SDS011;7781;49.690;6.472;2022-08-11T06:54:56;4.43;;;2.60;;
15363;SDS011;7781;49.690;6.472;2022-08-11T06:57:32;4.70;;;2.90;;
15363;SDS011;7781;49.690;6.472;2022-08-11T07:00:22;4.90;;;2.90;;
15363;SDS011;7781;49.690;6.472;2022-08-11T07:02:59;5.17;;;3.13;;
15363;SDS011;7781;49.690;6.472;2022-08-11T07:05:38;8.03;;;2.80;;
15363;SDS011;7781;49.690;6.472;2022-08-11T07:08:17;9.70;;;2.77;;
15363;SDS011;7781;49.690;6.472;2022-08-11T07:11:22;6.07;;;2.60;;
15363;SDS011;7781;49.690;6.472;2022-08-11T07:14:34;7.70;;;3.70;;
15363;SDS011;7781;49.690;6.472;2022-08-11T07:17:43;7.40;;;2.80;;
15363;SDS011;7781;49.690;6.472;2022-08-11T07:20:35;7.00;;;3.23;;
15363;SDS011;7781;49.690;6.472;2022-08-11T07:23:28;8.57;;;2.83;;
15363;SDS011;7781;49.690;6.472;2022-08-11T07:26:18;8.47;;;2.60;;
15363;SDS011;7781;49.690;6.472;2022-08-11T07:29:08;4.37;;;2.57;;
15363;SDS011;7781;49.690;6.472;2022-08-11T07:31:40;6.83;;;2.57;;
15363;SDS011;7781;49.690;6.472;2022-08-11T07:34:18;4.30;;;2.90;;
15363;SDS011;7781;49.690;6.472;2022-08-11T07:36:50;18.77;;;3.00;;
15363;SDS011;7781;49.690;6.472;2022-08-11T07:39:21;6.73;;;3.13;;
15363;SDS011;7781;49.690;6.472;2022-08-11T07:41:53;9.37;;;2.90;;
15363;SDS011;7781;49.690;6.472;2022-08-11T07:44:22;3.07;;;2.77;;
15363;SDS011;7781;49.690;6.472;2022-08-11T07:47:00;6.10;;;2.70;;
15363;SDS011;7781;49.690;6.472;2022-08-11T07:49:59;3.33;;;2.43;;
15363;SDS011;7781;49.690;6.472;2022-08-11T07:52:45;6.93;;;2.67;;
15363;SDS011;7781;49.690;6.472;2022-08-11T07:55:20;4.57;;;2.90;;
15363;SDS011;7781;49.690;6.472;2022-08-11T07:58:10;6.93;;;2.40;;
15363;SDS011;7781;49.690;6.472;2022-08-11T08:01:11;9.73;;;2.33;;
15363;SDS011;7781;49.690;6.472;2022-08-11T08:04:03;3.90;;;2.43;;
15363;SDS011;7781;49.690;6.472;2022-08-11T08:06:50;4.47;;;2.63;;
15363;SDS011;7781;49.690;6.472;2022-08-11T08:09:37;5.83;;;2.50;;
15363;SDS011;7781;49.690;6.472;2022-08-11T08:12:24;5.00;;;2.50;;
15363;SDS011;7781;49.690;6.472;2022-08-11T08:15:11;4.23;;;2.60;;
15363;SDS011;7781;49.690;6.472;2022-08-11T08:18:00;3.90;;;2.43;;
15363;SDS011;7781;49.690;6.472;2022-08-11T08:20:51;4.60;;;2.20;;
15363;SDS011;7781;49.690;6.472;2022-08-11T08:23:25;4.77;;;2.90;;
15363;SDS011;7781;49.690;6.472;2022-08-11T08:26:00;6.17;;;2.77;;
15363;SDS011;7781;49.690;6.472;2022-08-11T08:28:30;6.03;;;2.80;;
15363;SDS011;7781;49.690;6.472;2022-08-11T08:31:00;9.17;;;2.30;;
15363;SDS011;7781;49.690;6.472;2022-08-11T08:33:28;9.20;;;2.57;;
15363;SDS011;7781;49.690;6.472;2022-08-11T08:35:59;5.40;;;2.50;;
15363;SDS011;7781;49.690;6.472;2022-08-11T08:38:45;5.03;;;2.43;;
15363;SDS011;7781;49.690;6.472;2022-08-11T08:41:16;9.57;;;2.60;;
15363;SDS011;7781;49.690;6.472;2022-08-11T08:43:50;3.73;;;2.43;;
15363;SDS011;7781;49.690;6.472;2022-08-11T08:46:41;4.90;;;2.50;;
15363;SDS011;7781;49.690;6.472;2022-08-11T08:49:12;12.27;;;2.30;;
15363;SDS011;7781;49.690;6.472;2022-08-11T08:51:44;8.80;;;2.67;;
15363;SDS011;7781;49.690;6.472;2022-08-11T08:54:41;5.83;;;2.30;;
15363;SDS011;7781;49.690;6.472;2022-08-11T08:57:11;4.93;;;2.40;;
15363;SDS011;7781;49.690;6.472;2022-08-11T08:59:43;7.77;;;1.97;;
15363;SDS011;7781;49.690;6.472;2022-08-11T09:02:17;5.70;;;2.60;;
15363;SDS011;7781;49.690;6.472;2022-08-11T09:05:00;5.07;;;2.40;;
15363;SDS011;7781;49.690;6.472;2022-08-11T09:07:29;5.50;;;2.83;;
15363;SDS011;7781;49.690;6.472;2022-08-11T09:10:07;6.90;;;2.37;;
15363;SDS011;7781;49.690;6.472;2022-08-11T09:12:37;4.53;;;2.50;;
15363;SDS011;7781;49.690;6.472;2022-08-11T09:15:08;3.93;;;2.10;;
15363;SDS011;7781;49.690;6.472;2022-08-11T09:17:39;6.13;;;2.57;;
15363;SDS011;7781;49.690;6.472;2022-08-11T09:20:11;7.00;;;2.53;;
15363;SDS011;7781;49.690;6.472;2022-08-11T09:22:42;3.97;;;2.10;;
15363;SDS011;7781;49.690;6.472;2022-08-11T09:25:51;2.37;;;2.10;;
15363;SDS011;7781;49.690;6.472;2022-08-11T09:28:40;3.37;;;2.07;;
15363;SDS011;7781;49.690;6.472;2022-08-11T09:31:10;4.33;;;2.20;;
15363;SDS011;7781;49.690;6.472;2022-08-11T09:33:39;3.80;;;2.00;;
15363;SDS011;7781;49.690;6.472;2022-08-11T09:36:09;2.87;;;2.10;;
15363;SDS011;7781;49.690;6.472;2022-08-11T09:38:57;5.67;;;2.30;;
15363;SDS011;7781;49.690;6.472;2022-08-11T09:41:46;5.03;;;2.03;;
15363;SDS011;7781;49.690;6.472;2022-08-11T09:44:28;3.77;;;2.13;;
15363;SDS011;7781;49.690;6.472;2022-08-11T09:47:20;3.63;;;2.57;;
15363;SDS011;7781;49.690;6.472;2022-08-11T09:49:51;4.40;;;2.30;;
15363;SDS011;7781;49.690;6.472;2022-08-11T09:52:25;4.37;;;2.20;;
15363;SDS011;7781;49.690;6.472;2022-08-11T09:54:55;14.47;;;2.27;;
15363;SDS011;7781;49.690;6.472;2022-08-11T09:57:25;5.07;;;2.20;;
15363;SDS011;7781;49.690;6.472;2022-08-11T10:00:11;15.73;;;2.60;;
15363;SDS011;7781;49.690;6.472;2022-08-11T10:02:41;5.43;;;2.33;;
15363;SDS011;7781;49.690;6.472;2022-08-11T10:05:13;5.33;;;2.50;;
15363;SDS011;7781;49.690;6.472;2022-08-11T10:08:03;6.90;;;2.43;;
15363;SDS011;7781;49.690;6.472;2022-08-11T10:10:35;2.27;;;2.07;;
15363;SDS011;7781;49.690;6.472;2022-08-11T10:13:07;3.83;;;2.20;;
15363;SDS011;7781;49.690;6.472;2022-08-11T10:15:58;3.43;;;1.90;;
15363;SDS011;7781;49.690;6.472;2022-08-11T10:18:42;4.03;;;2.17;;
15363;SDS011;7781;49.690;6.472;2022-08-11T10:21:23;2.80;;;2.30;;
15363;SDS011;7781;49.690;6.472;2022-08-11T10:23:55;3.07;;;2.20;;
15363;SDS011;7781;49.690;6.472;2022-08-11T10:26:43;4.20;;;2.00;;
15363;SDS011;7781;49.690;6.472;2022-08-11T10:29:22;3.87;;;2.27;;
15363;SDS011;7781;49.690;6.472;2022-08-11T10:32:18;6.10;;;1.87;;
15363;SDS011;7781;49.690;6.472;2022-08-11T10:35:24;4.07;;;1.93;;
15363;SDS011;7781;49.690;6.472;2022-08-11T10:37:54;11.10;;;2.10;;
15363;SDS011;7781;49.690;6.472;2022-08-11T10:40:34;4.00;;;3.30;;
15363;SDS011;7781;49.690;6.472;2022-08-11T10:43:06;3.10;;;2.03;;
15363;SDS011;7781;49.690;6.472;2022-08-11T10:45:41;12.70;;;2.53;;
15363;SDS011;7781;49.690;6.472;2022-08-11T10:48:30;9.90;;;2.33;;
15363;SDS011;7781;49.690;6.472;2022-08-11T10:51:04;3.63;;;1.80;;
15363;SDS011;7781;49.690;6.472;2022-08-11T10:53:41;2.93;;;2.10;;
15363;SDS011;7781;49.690;6.472;2022-08-11T10:56:30;3.17;;;2.00;;
15363;SDS011;7781;49.690;6.472;2022-08-11T10:59:18;9.80;;;2.03;;
15363;SDS011;7781;49.690;6.472;2022-08-11T11:01:50;2.50;;;1.83;;
15363;SDS011;7781;49.690;6.472;2022-08-11T11:04:21;4.00;;;2.03;;
15363;SDS011;7781;49.690;6.472;2022-08-11T11:06:53;2.23;;;2.03;;
15363;SDS011;7781;49.690;6.472;2022-08-11T11:09:29;2.10;;;1.90;;
15363;SDS011;7781;49.690;6.472;2022-08-11T11:12:00;7.10;;;1.90;;
15363;SDS011;7781;49.690;6.472;2022-08-11T11:14:50;3.33;;;2.03;;
15363;SDS011;7781;49.690;6.472;2022-08-11T11:17:46;5.33;;;2.27;;
15363;SDS011;7781;49.690;6.472;2022-08-11T11:20:29;2.20;;;2.00;;
15363;SDS011;7781;49.690;6.472;2022-08-11T11:23:11;2.90;;;1.80;;
15363;SDS011;7781;49.690;6.472;2022-08-11T11:25:51;5.77;;;2.10;;
15363;SDS011;7781;49.690;6.472;2022-08-11T11:28:39;4.27;;;2.03;;
15363;SDS011;7781;49.690;6.472;2022-08-11T11:31:21;2.40;;;1.90;;
15363;SDS011;7781;49.690;6.472;2022-08-11T11:34:09;2.57;;;2.33;;
15363;SDS011;7781;49.690;6.472;2022-08-11T11:36:46;2.63;;;2.20;;
15363;SDS011;7781;49.690;6.472;2022-08-11T11:39:18;3.80;;;1.93;;
15363;SDS011;7781;49.690;6.472;2022-08-11T11:41:48;2.97;;;1.93;;
15363;SDS011;7781;49.690;6.472;2022-08-11T11:44:20;2.40;;;1.80;;
15363;SDS011;7781;49.690;6.472;2022-08-11T11:46:49;3.53;;;1.83;;
15363;SDS011;7781;49.690;6.472;2022-08-11T11:49:21;3.43;;;1.97;;
15363;SDS011;7781;49.690;6.472;2022-08-11T11:51:51;2.63;;;2.13;;
15363;SDS011;7781;49.690;6.472;2022-08-11T11:54:21;2.40;;;2.10;;
15363;SDS011;7781;49.690;6.472;2022-08-11T11:56:52;2.10;;;1.90;;
15363;SDS011;7781;49.690;6.472;2022-08-11T11:59:22;2.30;;;1.73;;
15363;SDS011;7781;49.690;6.472;2022-08-11T12:02:11;4.00;;;1.63;;
15363;SDS011;7781;49.690;6.472;2022-08-11T12:04:43;1.60;;;1.50;;
15363;SDS011;7781;49.690;6.472;2022-08-11T12:07:13;3.10;;;1.60;;
15363;SDS011;7781;49.690;6.472;2022-08-11T12:10:00;6.37;;;2.00;;
15363;SDS011;7781;49.690;6.472;2022-08-11T12:12:29;1.40;;;1.30;;
15363;SDS011;7781;49.690;6.472;2022-08-11T12:15:16;7.90;;;1.83;;
15363;SDS011;7781;49.690;6.472;2022-08-11T12:18:05;3.53;;;1.60;;
15363;SDS011;7781;49.690;6.472;2022-08-11T12:20:35;4.57;;;1.70;;
15363;SDS011;7781;49.690;6.472;2022-08-11T12:23:04;2.40;;;1.60;;
15363;SDS011;7781;49.690;6.472;2022-08-11T12:25:56;1.70;;;1.60;;
15363;SDS011;7781;49.690;6.472;2022-08-11T12:28:52;2.50;;;1.60;;
15363;SDS011;7781;49.690;6.472;2022-08-11T12:31:23;1.43;;;1.33;;
15363;SDS011;7781;49.690;6.472;2022-08-11T12:33:52;7.67;;;1.50;;
15363;SDS011;7781;49.690;6.472;2022-08-11T12:36:27;1.73;;;1.53;;
15363;SDS011;7781;49.690;6.472;2022-08-11T12:38:58;3.60;;;1.50;;
15363;SDS011;7781;49.690;6.472;2022-08-11T12:41:49;4.23;;;1.70;;
15363;SDS011;7781;49.690;6.472;2022-08-11T12:44:35;8.20;;;1.90;;
15363;SDS011;7781;49.690;6.472;2022-08-11T12:47:21;6.57;;;1.73;;
15363;SDS011;7781;49.690;6.472;2022-08-11T12:49:49;2.60;;;1.50;;
15363;SDS011;7781;49.690;6.472;2022-08-11T12:53:00;7.47;;;1.40;;
15363;SDS011;7781;49.690;6.472;2022-08-11T12:55:29;3.30;;;1.70;;
15363;SDS011;7781;49.690;6.472;2022-08-11T12:58:33;7.63;;;1.97;;
15363;SDS011;7781;49.690;6.472;2022-08-11T13:01:04;4.30;;;1.70;;
15363;SDS011;7781;49.690;6.472;2022-08-11T13:03:51;2.23;;;1.60;;
15363;SDS011;7781;49.690;6.472;2022-08-11T13:06:37;6.23;;;1.70;;
15363;SDS011;7781;49.690;6.472;2022-08-11T13:09:07;2.07;;;1.53;;
15363;SDS011;7781;49.690;6.472;2022-08-11T13:11:37;5.73;;;1.93;;
15363;SDS011;7781;49.690;6.472;2022-08-11T13:14:24;5.17;;;1.60;;
15363;SDS011;7781;49.690;6.472;2022-08-11T13:16:53;1.88;;;1.75;;
15363;SDS011;7781;49.690;6.472;2022-08-11T13:19:40;3.65;;;1.60;;
15363;SDS011;7781;49.690;6.472;2022-08-11T13:22:15;5.85;;;1.98;;
15363;SDS011;7781;49.690;6.472;2022-08-11T13:24:46;2.30;;;1.55;;
15363;SDS011;7781;49.690;6.472;2022-08-11T13:27:17;1.52;;;1.42;;
15363;SDS011;7781;49.690;6.472;2022-08-11T13:29:46;5.90;;;2.00;;
15363;SDS011;7781;49.690;6.472;2022-08-11T13:32:16;1.90;;;1.40;;
15363;SDS011;7781;49.690;6.472;2022-08-11T13:34:46;1.85;;;1.52;;
15363;SDS011;7781;49.690;6.472;2022-08-11T13:37:15;8.02;;;1.65;;
15363;SDS011;7781;49.690;6.472;2022-08-11T13:40:08;1.40;;;1.30;;
15363;SDS011;7781;49.690;6.472;2022-08-11T13:42:38;3.58;;;1.60;;
15363;SDS011;7781;49.690;6.472;2022-08-11T13:45:08;1.92;;;1.60;;
15363;SDS011;7781;49.690;6.472;2022-08-11T13:47:39;3.72;;;1.92;;
15363;SDS011;7781;49.690;6.472;2022-08-11T13:50:09;3.55;;;1.60;;
15363;SDS011;7781;49.690;6.472;2022-08-11T13:52:39;1.65;;;1.50;;
15363;SDS011;7781;49.690;6.472;2022-08-11T13:55:11;1.80;;;1.50;;
15363;SDS011;7781;49.690;6.472;2022-08-11T13:58:07;2.75;;;1.60;;
15363;SDS011;7781;49.690;6.472;2022-08-11T14:00:57;5.20;;;1.87;;
15363;SDS011;7781;49.690;6.472;2022-08-11T14:03:46;4.70;;;1.60;;
15363;SDS011;7781;49.690;6.472;2022-08-11T14:06:35;4.10;;;1.80;;
15363;SDS011;7781;49.690;6.472;2022-08-11T14:09:07;3.27;;;1.83;;
15363;SDS011;7781;49.690;6.472;2022-08-11T14:11:38;2.88;;;1.63;;
15363;SDS011;7781;49.690;6.472;2022-08-11T14:14:48;1.70;;;1.40;;
15363;SDS011;7781;49.690;6.472;2022-08-11T14:17:22;1.65;;;1.55;;
15363;SDS011;7781;49.690;6.472;2022-08-11T14:20:11;4.38;;;1.63;;
15363;SDS011;7781;49.690;6.472;2022-08-11T14:23:03;10.05;;;1.60;;
15363;SDS011;7781;49.690;6.472;2022-08-11T14:25:30;1.50;;;1.40;;
15363;SDS011;7781;49.690;6.472;2022-08-11T14:28:21;1.60;;;1.50;;
15363;SDS011;7781;49.690;6.472;2022-08-11T14:31:01;1.77;;;1.65;;
15363;SDS011;7781;49.690;6.472;2022-08-11T14:33:31;5.43;;;1.80;;
15363;SDS011;7781;49.690;6.472;2022-08-11T14:36:21;3.08;;;1.90;;
15363;SDS011;7781;49.690;6.472;2022-08-11T14:38:52;5.47;;;1.90;;
15363;SDS011;7781;49.690;6.472;2022-08-11T14:41:21;2.55;;;1.60;;
15363;SDS011;7781;49.690;6.472;2022-08-11T14:44:30;1.75;;;1.65;;
15363;SDS011;7781;49.690;6.472;2022-08-11T14:47:18;3.15;;;1.70;;
15363;SDS011;7781;49.690;6.472;2022-08-11T14:49:52;4.15;;;1.80;;
15363;SDS011;7781;49.690;6.472;2022-08-11T14:52:38;10.07;;;1.60;;
15363;SDS011;7781;49.690;6.472;2022-08-11T14:55:11;3.33;;;1.73;;
15363;SDS011;7781;49.690;6.472;2022-08-11T14:57:59;4.97;;;1.98;;
15363;SDS011;7781;49.690;6.472;2022-08-11T15:00:29;3.20;;;1.80;;
15363;SDS011;7781;49.690;6.472;2022-08-11T15:02:59;3.90;;;1.77;;
15363;SDS011;7781;49.690;6.472;2022-08-11T15:05:39;3.35;;;1.75;;
15363;SDS011;7781;49.690;6.472;2022-08-11T15:08:24;1.95;;;1.65;;
15363;SDS011;7781;49.690;6.472;2022-08-11T15:11:13;2.30;;;1.63;;
15363;SDS011;7781;49.690;6.472;2022-08-11T15:17:13;5.47;;;1.77;;
15363;SDS011;7781;49.690;6.472;2022-08-11T15:19:43;4.80;;;1.92;;
15363;SDS011;7781;49.690;6.472;2022-08-11T15:22:26;3.78;;;1.60;;
15363;SDS011;7781;49.690;6.472;2022-08-11T15:25:12;3.70;;;1.63;;
15363;SDS011;7781;49.690;6.472;2022-08-11T15:27:41;2.08;;;1.88;;
15363;SDS011;7781;49.690;6.472;2022-08-11T15:30:30;5.97;;;1.80;;
15363;SDS011;7781;49.690;6.472;2022-08-11T15:33:17;5.18;;;1.58;;
15363;SDS011;7781;49.690;6.472;2022-08-11T15:36:05;4.25;;;2.10;;
15363;SDS011;7781;49.690;6.472;2022-08-11T15:38:54;5.70;;;1.70;;
15363;SDS011;7781;49.690;6.472;2022-08-11T15:41:27;3.87;;;1.53;;
15363;SDS011;7781;49.690;6.472;2022-08-11T15:44:25;4.07;;;1.90;;
15363;SDS011;7781;49.690;6.472;2022-08-11T15:47:32;4.67;;;2.00;;
15363;SDS011;7781;49.690;6.472;2022-08-11T15:50:08;5.73;;;1.77;;
15363;SDS011;7781;49.690;6.472;2022-08-11T15:52:45;2.80;;;1.70;;
15363;SDS011;7781;49.690;6.472;2022-08-11T15:55:19;5.60;;;1.70;;
15363;SDS011;7781;49.690;6.472;2022-08-11T15:57:50;3.87;;;1.57;;
15363;SDS011;7781;49.690;6.472;2022-08-11T16:00:38;4.47;;;1.70;;
15363;SDS011;7781;49.690;6.472;2022-08-11T16:03:34;2.43;;;2.17;;
15363;SDS011;7781;49.690;6.472;2022-08-11T16:06:39;3.47;;;1.70;;
15363;SDS011;7781;49.690;6.472;2022-08-11T16:09:17;5.07;;;2.10;;
15363;SDS011;7781;49.690;6.472;2022-08-11T16:11:55;2.40;;;2.00;;
15363;SDS011;7781;49.690;6.472;2022-08-11T16:14:26;2.10;;;1.83;;
15363;SDS011;7781;49.690;6.472;2022-08-11T16:17:15;2.20;;;2.00;;
15363;SDS011;7781;49.690;6.472;2022-08-11T16:19:48;4.97;;;2.13;;
15363;SDS011;7781;49.690;6.472;2022-08-11T16:22:25;2.90;;;2.17;;
15363;SDS011;7781;49.690;6.472;2022-08-11T16:25:02;5.17;;;2.23;;
15363;SDS011;7781;49.690;6.472;2022-08-11T16:27:54;4.30;;;2.27;;
15363;SDS011;7781;49.690;6.472;2022-08-11T16:30:24;3.27;;;2.20;;
15363;SDS011;7781;49.690;6.472;2022-08-11T16:32:54;3.17;;;2.10;;
15363;SDS011;7781;49.690;6.472;2022-08-11T16:35:44;4.60;;;1.90;;
15363;SDS011;7781;49.690;6.472;2022-08-11T16:38:35;2.83;;;2.30;;
15363;SDS011;7781;49.690;6.472;2022-08-11T16:41:06;2.70;;;1.90;;
15363;SDS011;7781;49.690;6.472;2022-08-11T16:43:38;5.10;;;2.10;;
15363;SDS011;7781;49.690;6.472;2022-08-11T16:46:26;4.50;;;2.40;;
15363;SDS011;7781;49.690;6.472;2022-08-11T16:49:14;4.23;;;2.53;;
15363;SDS011;7781;49.690;6.472;2022-08-11T16:51:44;7.97;;;4.23;;
15363;SDS011;7781;49.690;6.472;2022-08-11T16:54:14;9.67;;;3.70;;
15363;SDS011;7781;49.690;6.472;2022-08-11T16:56:44;9.50;;;2.23;;
15363;SDS011;7781;49.690;6.472;2022-08-11T16:59:16;4.27;;;2.20;;
15363;SDS011;7781;49.690;6.472;2022-08-11T17:01:50;3.80;;;2.17;;
15363;SDS011;7781;49.690;6.472;2022-08-11T17:04:22;6.50;;;2.17;;
15363;SDS011;7781;49.690;6.472;2022-08-11T17:07:13;3.00;;;2.13;;
15363;SDS011;7781;49.690;6.472;2022-08-11T17:10:14;3.33;;;2.00;;